M I D A S
Marine Information and Data Acquisition System
Tripno 2071 of the Zeeleeuw from 2011-04-04 06:47:19 to 2011-04-04 15:57:38
Back to CruiseResearch ActivitiesStationsMapUnderway DataData graphs

EquipmentUnitsComment
TimeDGPSUTC
LatitudeDGPSDM.mWGS84
LongitudeDGPSDM.mWGS84
HeadingGyrodeg 
SOGDGPSknotsSpeed over ground
COGDGPSdegCourse over ground
DepthEcho soundermeters200 kHz
Missing or incorrect values are displayed as -999
Navigation data collected by the RV Zeeleeuw from 2011-04-04 06:23:44 to 2011-04-04 16:08:32
                                                                                    Next 1000 lines
Time Latitude Longitude Heading SOG COG Depth
2011-04-04 06:23:53 51°13.598 2°56.094 125.1 -999 208 -999
2011-04-04 06:23:58 51°13.598 2°56.094 125.2 0.1 209 -999
2011-04-04 06:24:03 51°13.598 2°56.094 125.2 0.1 61 -999
2011-04-04 06:24:08 51°13.598 2°56.094 125 -999 143 -999
2011-04-04 06:24:13 51°13.598 2°56.094 124.9 -999 48 -999
2011-04-04 06:24:18 51°13.598 2°56.094 124.9 -999 330 -999
2011-04-04 06:24:23 51°13.598 2°56.094 124.9 -999 293 -999
2011-04-04 06:24:28 51°13.598 2°56.094 124.9 -999 345 -999
2011-04-04 06:24:33 51°13.598 2°56.094 124.8 -999 5 -999
2011-04-04 06:24:38 51°13.598 2°56.094 124.6 -999 50 -999
2011-04-04 06:24:44 51°13.598 2°56.094 124.6 -999 90 -999
2011-04-04 06:24:48 51°13.598 2°56.094 124.6 -999 237 -999
2011-04-04 06:24:53 51°13.598 2°56.094 124.7 -999 283 -999
2011-04-04 06:24:58 51°13.597 2°56.094 124.7 -999 318 -999
2011-04-04 06:25:03 51°13.597 2°56.094 124.7 -999 347 -999
2011-04-04 06:25:08 51°13.597 2°56.094 124.6 -999 218 -999
2011-04-04 06:25:13 51°13.597 2°56.094 124.6 -999 120 -999
2011-04-04 06:25:18 51°13.597 2°56.094 124.6 -999 101 -999
2011-04-04 06:25:23 51°13.597 2°56.094 124.6 -999 100 -999
2011-04-04 06:25:28 51°13.597 2°56.094 124.6 -999 326 -999
2011-04-04 06:25:34 51°13.597 2°56.094 124.6 -999 317 -999
2011-04-04 06:25:38 51°13.597 2°56.094 124.6 -999 300 -999
2011-04-04 06:25:43 51°13.597 2°56.094 124.6 -999 335 -999
2011-04-04 06:25:48 51°13.597 2°56.094 124.6 -999 352 -999
2011-04-04 06:25:53 51°13.597 2°56.094 124.6 -999 24 -999
2011-04-04 06:25:58 51°13.597 2°56.094 124.6 -999 197 -999
2011-04-04 06:26:03 51°13.597 2°56.094 124.6 -999 37 -999
2011-04-04 06:26:08 51°13.597 2°56.094 124.6 -999 342 -999
2011-04-04 06:26:13 51°13.597 2°56.094 124.6 -999 273 -999
2011-04-04 06:26:19 51°13.597 2°56.094 124.6 -999 295 -999
2011-04-04 06:26:23 51°13.597 2°56.094 124.6 -999 324 -999
2011-04-04 06:26:29 51°13.598 2°56.094 124.6 -999 338 -999
2011-04-04 06:26:33 51°13.598 2°56.094 124.6 -999 338 -999
2011-04-04 06:26:38 51°13.598 2°56.094 124.6 -999 20 -999
2011-04-04 06:26:43 51°13.598 2°56.095 124.6 -999 341 -999
2011-04-04 06:26:48 51°13.598 2°56.095 124.6 -999 354 -999
2011-04-04 06:26:53 51°13.598 2°56.095 124.6 -999 340 -999
2011-04-04 06:26:58 51°13.598 2°56.094 124.6 -999 68 -999
2011-04-04 06:27:03 51°13.598 2°56.095 124.7 -999 115 -999
2011-04-04 06:27:08 51°13.598 2°56.094 124.8 -999 156 -999
2011-04-04 06:27:13 51°13.597 2°56.094 124.9 -999 101 -999
2011-04-04 06:27:18 51°13.597 2°56.094 125.1 -999 245 -999
2011-04-04 06:27:23 51°13.597 2°56.094 125.2 -999 298 -999
2011-04-04 06:27:28 51°13.598 2°56.094 125.2 -999 216 -999
2011-04-04 06:27:33 51°13.598 2°56.094 125.2 -999 317 -999
2011-04-04 06:27:38 51°13.598 2°56.094 125.2 -999 32 -999
2011-04-04 06:27:43 51°13.598 2°56.094 125.1 -999 352 -999
2011-04-04 06:27:48 51°13.598 2°56.094 125 -999 335 -999
2011-04-04 06:27:53 51°13.598 2°56.094 125 -999 290 -999
2011-04-04 06:27:58 51°13.598 2°56.095 125 -999 291 -999
2011-04-04 06:28:03 51°13.598 2°56.095 124.9 -999 28 -999
2011-04-04 06:28:08 51°13.598 2°56.095 124.9 -999 58 -999
2011-04-04 06:28:13 51°13.598 2°56.095 124.8 -999 336 -999
2011-04-04 06:28:18 51°13.598 2°56.095 124.8 -999 59 -999
2011-04-04 06:28:24 51°13.598 2°56.095 124.8 -999 68 -999
2011-04-04 06:28:29 51°13.598 2°56.095 124.8 -999 230 -999
2011-04-04 06:28:34 51°13.598 2°56.095 124.8 -999 205 -999
2011-04-04 06:28:39 51°13.599 2°56.095 124.8 -999 270 -999
2011-04-04 06:28:43 51°13.599 2°56.095 124.8 -999 327 -999
2011-04-04 06:28:48 51°13.599 2°56.095 124.8 -999 67 -999
2011-04-04 06:28:53 51°13.599 2°56.095 124.8 -999 117 -999
2011-04-04 06:28:58 51°13.599 2°56.095 124.8 -999 114 -999
2011-04-04 06:29:03 51°13.599 2°56.096 124.8 -999 136 -999
2011-04-04 06:29:09 51°13.599 2°56.095 124.8 -999 124 -999
2011-04-04 06:29:13 51°13.599 2°56.095 124.8 -999 121 -999
2011-04-04 06:29:18 51°13.599 2°56.096 124.8 -999 214 -999
2011-04-04 06:29:23 51°13.599 2°56.096 124.8 -999 218 -999
2011-04-04 06:29:28 51°13.599 2°56.096 124.9 -999 199 -999
2011-04-04 06:29:33 51°13.599 2°56.095 124.9 -999 46 -999
2011-04-04 06:29:38 51°13.599 2°56.095 124.9 -999 171 -999
2011-04-04 06:29:43 51°13.599 2°56.095 124.9 -999 351 -999
2011-04-04 06:29:49 51°13.599 2°56.095 124.9 -999 332 -999
2011-04-04 06:29:53 51°13.599 2°56.095 124.9 -999 319 -999
2011-04-04 06:29:58 51°13.599 2°56.095 124.9 -999 316 -999
2011-04-04 06:30:03 51°13.599 2°56.095 124.9 -999 298 -999
2011-04-04 06:30:08 51°13.599 2°56.095 124.9 -999 329 -999
2011-04-04 06:30:13 51°13.599 2°56.095 124.9 -999 287 -999
2011-04-04 06:30:18 51°13.599 2°56.095 124.8 -999 358 -999
2011-04-04 06:30:23 51°13.599 2°56.094 124.8 -999 337 -999
2011-04-04 06:30:28 51°13.599 2°56.095 124.8 -999 132 -999
2011-04-04 06:30:33 51°13.599 2°56.095 124.8 -999 171 -999
2011-04-04 06:30:38 51°13.599 2°56.095 124.8 -999 124 -999
2011-04-04 06:30:43 51°13.599 2°56.095 124.8 -999 136 -999
2011-04-04 06:30:48 51°13.599 2°56.095 124.9 -999 141 -999
2011-04-04 06:30:53 51°13.599 2°56.095 124.9 -999 175 -999
2011-04-04 06:30:58 51°13.599 2°56.095 125 -999 327 -999
2011-04-04 06:31:03 51°13.599 2°56.095 125 -999 246 -999
2011-04-04 06:31:09 51°13.599 2°56.095 125.1 -999 337 -999
2011-04-04 06:31:13 51°13.599 2°56.095 125.1 -999 217 -999
2011-04-04 06:31:18 51°13.599 2°56.095 125.1 -999 -999 -999
2011-04-04 06:31:23 51°13.599 2°56.095 125.1 -999 265 -999
2011-04-04 06:31:28 51°13.599 2°56.095 125.1 -999 268 -999
2011-04-04 06:31:33 51°13.599 2°56.095 125.1 -999 17 -999
2011-04-04 06:31:38 51°13.599 2°56.096 125.1 -999 215 -999
2011-04-04 06:31:43 51°13.599 2°56.096 125.1 -999 92 -999
2011-04-04 06:31:48 51°13.599 2°56.096 125.1 -999 262 -999
2011-04-04 06:31:53 51°13.599 2°56.096 125.1 -999 87 -999
2011-04-04 06:31:58 51°13.599 2°56.096 125.3 -999 168 -999
2011-04-04 06:32:04 51°13.599 2°56.096 125.3 -999 118 -999
2011-04-04 06:32:08 51°13.599 2°56.096 125.5 -999 205 -999
2011-04-04 06:32:13 51°13.599 2°56.096 125.6 -999 278 -999
2011-04-04 06:32:18 51°13.599 2°56.096 125.6 -999 14 -999
2011-04-04 06:32:23 51°13.599 2°56.095 125.6 -999 297 -999
2011-04-04 06:32:28 51°13.599 2°56.095 125.6 -999 341 -999
2011-04-04 06:32:34 51°13.598 2°56.095 125.6 -999 301 -999
2011-04-04 06:32:38 51°13.598 2°56.096 125.7 -999 20 -999
2011-04-04 06:32:43 51°13.599 2°56.096 125.7 -999 292 -999
2011-04-04 06:32:48 51°13.599 2°56.096 125.7 -999 240 -999
2011-04-04 06:32:53 51°13.599 2°56.096 125.7 -999 355 -999
2011-04-04 06:32:58 51°13.599 2°56.096 125.6 -999 80 -999
2011-04-04 06:33:03 51°13.599 2°56.096 125.6 -999 152 -999
2011-04-04 06:33:08 51°13.599 2°56.096 125.6 0.1 111 -999
2011-04-04 06:33:13 51°13.599 2°56.096 125.6 -999 129 -999
2011-04-04 06:33:18 51°13.599 2°56.096 125.6 -999 110 -999
2011-04-04 06:33:23 51°13.599 2°56.096 125.6 -999 316 -999
2011-04-04 06:33:29 51°13.599 2°56.096 125.6 -999 305 -999
2011-04-04 06:33:33 51°13.599 2°56.096 125.5 -999 350 -999
2011-04-04 06:33:38 51°13.599 2°56.096 125.4 -999 337 -999
2011-04-04 06:33:43 51°13.599 2°56.096 125.3 -999 10 -999
2011-04-04 06:33:48 51°13.599 2°56.096 125.2 -999 31 -999
2011-04-04 06:33:53 51°13.599 2°56.096 125.1 -999 358 -999
2011-04-04 06:33:58 51°13.599 2°56.096 125.1 -999 266 -999
2011-04-04 06:34:03 51°13.599 2°56.096 125.1 -999 195 -999
2011-04-04 06:34:08 51°13.599 2°56.096 125.1 -999 32 -999
2011-04-04 06:34:13 51°13.598 2°56.096 125.2 -999 227 -999
2011-04-04 06:34:18 51°13.599 2°56.096 125.2 -999 306 -999
2011-04-04 06:34:23 51°13.599 2°56.096 125.2 -999 231 -999
2011-04-04 06:34:28 51°13.599 2°56.096 125.1 -999 85 -999
2011-04-04 06:34:33 51°13.599 2°56.096 125.1 -999 13 6.6
2011-04-04 06:34:38 51°13.599 2°56.095 125.1 -999 338 6.6
2011-04-04 06:34:43 51°13.599 2°56.096 125.1 -999 54 6.5
2011-04-04 06:34:48 51°13.599 2°56.096 125.1 -999 45 6.6
2011-04-04 06:34:52 51°13.599 2°56.095 125.1 -999 274 6.5
2011-04-04 06:34:57 51°13.599 2°56.096 125 -999 115 6.6
2011-04-04 06:35:02 51°13.599 2°56.095 125 -999 276 6.5
2011-04-04 06:35:07 51°13.598 2°56.095 125 -999 342 6.6
2011-04-04 06:35:12 51°13.598 2°56.095 124.9 -999 271 6.5
2011-04-04 06:35:17 51°13.598 2°56.095 125 -999 231 6.5
2011-04-04 06:35:23 51°13.598 2°56.095 125 -999 267 6.5
2011-04-04 06:35:27 51°13.598 2°56.095 125 -999 220 6.5
2011-04-04 06:35:33 51°13.598 2°56.095 125 -999 151 6.5
2011-04-04 06:35:37 51°13.598 2°56.095 125 -999 199 6.6
2011-04-04 06:35:42 51°13.598 2°56.095 125 -999 319 6.5
2011-04-04 06:35:47 51°13.598 2°56.095 125 -999 357 6.5
2011-04-04 06:35:52 51°13.598 2°56.095 125 -999 89 6.6
2011-04-04 06:35:57 51°13.598 2°56.095 125 -999 214 6.5
2011-04-04 06:36:01 51°13.598 2°56.095 125 -999 184 6.5
2011-04-04 06:36:06 51°13.598 2°56.095 125 -999 311 6.5
2011-04-04 06:36:11 51°13.598 2°56.095 125 -999 219 6.5
2011-04-04 06:36:16 51°13.598 2°56.095 125 -999 284 6.6
2011-04-04 06:36:21 51°13.598 2°56.095 125.1 -999 45 6.6
2011-04-04 06:36:25 51°13.598 2°56.095 125.1 -999 33 6.5
2011-04-04 06:36:30 51°13.598 2°56.095 125.1 -999 58 6.9
2011-04-04 06:36:35 51°13.598 2°56.095 125 -999 242 6.6
2011-04-04 06:36:40 51°13.598 2°56.095 124.9 -999 230 6.6
2011-04-04 06:36:45 51°13.598 2°56.096 124.9 -999 121 6.6
2011-04-04 06:36:50 51°13.599 2°56.096 125 -999 135 6.5
2011-04-04 06:36:55 51°13.599 2°56.096 125 -999 158 -999
2011-04-04 06:37:00 51°13.599 2°56.096 125 -999 172 6.5
2011-04-04 06:37:05 51°13.598 2°56.096 125.1 -999 139 6.5
2011-04-04 06:37:10 51°13.598 2°56.096 125.2 -999 4 6.5
2011-04-04 06:37:15 51°13.598 2°56.095 125.2 -999 320 6.5
2011-04-04 06:37:20 51°13.598 2°56.095 125.2 -999 319 6.5
2011-04-04 06:37:25 51°13.598 2°56.095 125.2 -999 251 6.5
2011-04-04 06:37:29 51°13.598 2°56.095 125.2 -999 81 -999
2011-04-04 06:37:36 51°13.598 2°56.095 125.2 -999 120 -999
2011-04-04 06:37:41 51°13.598 2°56.095 125.2 -999 105 6.5
2011-04-04 06:37:45 51°13.598 2°56.095 125.2 -999 281 6.5
2011-04-04 06:37:51 51°13.598 2°56.095 125.2 -999 183 6.5
2011-04-04 06:37:56 51°13.598 2°56.095 125.2 -999 230 6.5
2011-04-04 06:38:02 51°13.598 2°56.095 125.2 -999 298 6.5
2011-04-04 06:38:06 51°13.598 2°56.095 125.2 -999 299 6.5
2011-04-04 06:38:11 51°13.598 2°56.095 125.2 -999 333 -999
2011-04-04 06:38:16 51°13.598 2°56.095 125.2 -999 319 6.5
2011-04-04 06:38:21 51°13.598 2°56.095 125.2 -999 7 6.7
2011-04-04 06:38:26 51°13.598 2°56.095 125.2 -999 24 6.5
2011-04-04 06:38:31 51°13.598 2°56.095 125.1 -999 99 6.5
2011-04-04 06:38:36 51°13.599 2°56.095 124.9 -999 341 6.5
2011-04-04 06:38:42 51°13.599 2°56.095 124.9 -999 214 6.5
2011-04-04 06:38:46 51°13.599 2°56.095 124.9 -999 2 6.5
2011-04-04 06:38:51 51°13.598 2°56.095 124.9 -999 284 6.5
2011-04-04 06:38:56 51°13.598 2°56.095 124.9 -999 310 6.5
2011-04-04 06:39:01 51°13.598 2°56.095 124.9 -999 5 6.5
2011-04-04 06:39:06 51°13.598 2°56.095 124.9 -999 304 6.5
2011-04-04 06:39:11 51°13.598 2°56.094 124.8 -999 334 6.5
2011-04-04 06:39:15 51°13.598 2°56.094 124.8 -999 356 6.5
2011-04-04 06:39:20 51°13.598 2°56.094 124.8 -999 267 6.5
2011-04-04 06:39:26 51°13.598 2°56.095 124.8 -999 339 6.5
2011-04-04 06:39:31 51°13.598 2°56.095 124.8 -999 243 6.5
2011-04-04 06:39:36 51°13.598 2°56.095 124.8 -999 251 6.5
2011-04-04 06:39:40 51°13.598 2°56.095 124.8 -999 340 6.5
2011-04-04 06:39:45 51°13.598 2°56.095 124.8 -999 247 6.5
2011-04-04 06:39:50 51°13.598 2°56.095 124.8 -999 341 6.5
2011-04-04 06:39:56 51°13.598 2°56.094 124.9 -999 13 6.5
2011-04-04 06:40:01 51°13.598 2°56.094 124.9 -999 171 6.5
2011-04-04 06:40:06 51°13.598 2°56.094 124.9 -999 261 6.5
2011-04-04 06:40:11 51°13.598 2°56.094 124.9 -999 218 6.5
2011-04-04 06:40:15 51°13.597 2°56.094 124.9 -999 345 6.5
2011-04-04 06:40:22 51°13.597 2°56.093 124.9 -999 357 6.5
2011-04-04 06:40:26 51°13.597 2°56.093 124.9 -999 349 6.5
2011-04-04 06:40:31 51°13.597 2°56.094 124.9 -999 19 6.5
2011-04-04 06:40:36 51°13.597 2°56.094 124.9 -999 167 6.5
2011-04-04 06:40:41 51°13.597 2°56.094 124.9 -999 337 6.5
2011-04-04 06:40:46 51°13.597 2°56.094 124.9 -999 32 6.5
2011-04-04 06:40:50 51°13.598 2°56.094 124.9 -999 277 6.5
2011-04-04 06:40:55 51°13.597 2°56.094 124.9 -999 346 6.5
2011-04-04 06:41:00 51°13.597 2°56.094 124.9 -999 229 6.5
2011-04-04 06:41:06 51°13.597 2°56.094 124.9 -999 184 6.5
2011-04-04 06:41:11 51°13.597 2°56.094 124.9 -999 209 6.5
2011-04-04 06:41:15 51°13.597 2°56.094 124.9 -999 177 6.5
2011-04-04 06:41:20 51°13.598 2°56.095 124.9 -999 90 6.5
2011-04-04 06:41:26 51°13.598 2°56.095 124.9 -999 281 6.5
2011-04-04 06:41:31 51°13.598 2°56.095 124.9 -999 206 6.5
2011-04-04 06:41:35 51°13.598 2°56.095 125.1 -999 293 6.5
2011-04-04 06:41:40 51°13.598 2°56.095 125.1 -999 290 6.5
2011-04-04 06:41:46 51°13.597 2°56.094 125.2 -999 302 6.5
2011-04-04 06:41:51 51°13.597 2°56.094 125.3 -999 250 6.5
2011-04-04 06:41:56 51°13.597 2°56.095 125.3 -999 292 6.5
2011-04-04 06:42:01 51°13.597 2°56.095 125.3 -999 311 6.5
2011-04-04 06:42:06 51°13.597 2°56.095 125.3 -999 255 6.5
2011-04-04 06:42:11 51°13.597 2°56.095 125.3 -999 -999 6.5
2011-04-04 06:42:15 51°13.597 2°56.095 125.3 -999 202 6.5
2011-04-04 06:42:20 51°13.597 2°56.095 125.3 -999 50 6.5
2011-04-04 06:42:25 51°13.597 2°56.095 125.3 -999 160 -999
2011-04-04 06:42:31 51°13.597 2°56.095 125.4 -999 187 -999
2011-04-04 06:42:36 51°13.597 2°56.095 125.4 -999 203 -999
2011-04-04 06:42:41 51°13.597 2°56.095 125.4 -999 11 6.5
2011-04-04 06:42:46 51°13.597 2°56.095 125.4 -999 125 6.5
2011-04-04 06:42:51 51°13.597 2°56.095 125.4 -999 339 6.5
2011-04-04 06:42:56 51°13.597 2°56.095 125.4 -999 28 -999
2011-04-04 06:43:01 51°13.597 2°56.095 125.4 -999 265 -999
2011-04-04 06:43:07 51°13.597 2°56.095 125.4 -999 358 6.5
2011-04-04 06:43:13 51°13.597 2°56.095 125.4 -999 350 6.5
2011-04-04 06:43:16 51°13.597 2°56.095 125.4 -999 330 6.5
2011-04-04 06:43:22 51°13.597 2°56.094 125.3 -999 336 6.5
2011-04-04 06:43:27 51°13.597 2°56.094 125.3 -999 7 6.5
2011-04-04 06:43:32 51°13.597 2°56.094 125.2 -999 144 6.5
2011-04-04 06:43:37 51°13.597 2°56.094 125.1 -999 61 6.5
2011-04-04 06:43:41 51°13.597 2°56.094 125.1 -999 277 6.5
2011-04-04 06:43:46 51°13.597 2°56.094 125 -999 92 6.5
2011-04-04 06:43:51 51°13.597 2°56.094 125 -999 270 6.5
2011-04-04 06:43:57 51°13.597 2°56.094 125 -999 296 6.5
2011-04-04 06:44:02 51°13.597 2°56.094 125 -999 233 6.5
2011-04-04 06:44:07 51°13.598 2°56.094 125 -999 338 6.5
2011-04-04 06:44:12 51°13.598 2°56.094 125 -999 312 6.5
2011-04-04 06:44:17 51°13.598 2°56.094 125.1 -999 225 6.5
2011-04-04 06:44:22 51°13.597 2°56.094 125.1 -999 346 6.5
2011-04-04 06:44:26 51°13.597 2°56.094 125.1 -999 299 6.5
2011-04-04 06:44:31 51°13.597 2°56.094 125.1 -999 315 6.5
2011-04-04 06:44:36 51°13.598 2°56.094 125.1 -999 344 6.5
2011-04-04 06:44:41 51°13.598 2°56.094 125.1 -999 264 6.5
2011-04-04 06:44:46 51°13.598 2°56.094 125 -999 275 6.5
2011-04-04 06:44:50 51°13.598 2°56.094 125 -999 178 6.5
2011-04-04 06:44:55 51°13.598 2°56.094 125 -999 27 6.5
2011-04-04 06:45:00 51°13.598 2°56.094 125 -999 64 6.5
2011-04-04 06:45:06 51°13.598 2°56.094 125 -999 230 6.5
2011-04-04 06:45:10 51°13.598 2°56.094 125 -999 340 6.5
2011-04-04 06:45:15 51°13.598 2°56.094 125 -999 281 6.5
2011-04-04 06:45:20 51°13.598 2°56.094 125 -999 130 6.5
2011-04-04 06:45:25 51°13.598 2°56.094 125 -999 177 6.5
2011-04-04 06:45:31 51°13.598 2°56.095 125 -999 266 6.6
2011-04-04 06:45:35 51°13.598 2°56.095 125 -999 258 6.5
2011-04-04 06:45:41 51°13.598 2°56.095 125 -999 272 6.5
2011-04-04 06:45:45 51°13.598 2°56.095 125 -999 295 6.5
2011-04-04 06:45:51 51°13.598 2°56.095 125 -999 244 6.5
2011-04-04 06:45:56 51°13.598 2°56.095 124.9 -999 34 6.5
2011-04-04 06:46:00 51°13.598 2°56.095 124.7 -999 211 6.5
2011-04-04 06:46:05 51°13.598 2°56.095 124.3 -999 157 6.5
2011-04-04 06:46:10 51°13.598 2°56.095 123.9 -999 127 6.5
2011-04-04 06:46:15 51°13.598 2°56.095 123.7 0.1 125 6.5
2011-04-04 06:46:20 51°13.597 2°56.094 123.6 -999 134 6.5
2011-04-04 06:46:24 51°13.597 2°56.094 123.5 -999 152 6.4
2011-04-04 06:46:29 51°13.597 2°56.094 123.2 -999 128 6.5
2011-04-04 06:46:35 51°13.597 2°56.095 122.8 -999 49 6.4
2011-04-04 06:46:41 51°13.597 2°56.095 122.4 -999 103 6.4
2011-04-04 06:46:45 51°13.597 2°56.095 121.8 -999 189 -999
2011-04-04 06:46:51 51°13.597 2°56.095 121.2 -999 237 -999
2011-04-04 06:46:57 51°13.597 2°56.095 120.7 -999 187 -999
2011-04-04 06:47:02 51°13.597 2°56.095 120.3 -999 128 -999
2011-04-04 06:47:07 51°13.598 2°56.096 119.7 0.1 92 6.4
2011-04-04 06:47:13 51°13.598 2°56.096 118.9 0.1 101 -999
2011-04-04 06:47:17 51°13.598 2°56.096 118 0.1 188 6.4
2011-04-04 06:47:23 51°13.597 2°56.096 116.9 0.1 185 -999
2011-04-04 06:47:28 51°13.597 2°56.096 115.5 0.1 186 6.4
2011-04-04 06:47:34 51°13.597 2°56.095 114.5 0.1 188 6.4
2011-04-04 06:47:38 51°13.597 2°56.094 113.3 0.1 270 -999
2011-04-04 06:47:43 51°13.597 2°56.093 112.4 0.4 289 6.4
2011-04-04 06:47:47 51°13.597 2°56.092 111.9 0.5 286 6.5
2011-04-04 06:47:52 51°13.598 2°56.091 111.9 1 296 6.6
2011-04-04 06:47:58 51°13.599 2°56.088 111.9 1.3 293 6.9
2011-04-04 06:48:02 51°13.599 2°56.085 112.2 1.7 294 7
2011-04-04 06:48:07 51°13.6 2°56.081 112.6 2 295 7.2
2011-04-04 06:48:12 51°13.601 2°56.076 113.2 2.4 294 -999
2011-04-04 06:48:18 51°13.603 2°56.069 113.5 2.7 294 -999
2011-04-04 06:48:23 51°13.605 2°56.063 113.6 2.9 294 -999
2011-04-04 06:48:28 51°13.607 2°56.057 113.6 3.2 294 -999
2011-04-04 06:48:33 51°13.609 2°56.05 113.7 3.3 295 -999
2011-04-04 06:48:38 51°13.611 2°56.044 114.1 3.4 295 -999
2011-04-04 06:48:43 51°13.613 2°56.037 114.9 3.5 295 -999
2011-04-04 06:48:48 51°13.616 2°56.03 115.8 3.6 296 -999
2011-04-04 06:48:53 51°13.618 2°56.022 116.7 3.7 297 -999
2011-04-04 06:48:58 51°13.62 2°56.015 117.7 3.8 297 -999
2011-04-04 06:49:03 51°13.623 2°56.007 118.4 4 297 -999
2011-04-04 06:49:08 51°13.625 2°55.999 118.5 4.1 298 -999
2011-04-04 06:49:13 51°13.628 2°55.991 118.7 4.2 298 -999
2011-04-04 06:49:18 51°13.631 2°55.982 118.8 4.3 297 -999
2011-04-04 06:49:23 51°13.634 2°55.974 118.9 4.4 298 -999
2011-04-04 06:49:28 51°13.637 2°55.965 118.9 4.5 298 -999
2011-04-04 06:49:34 51°13.641 2°55.954 118.8 4.6 297 -999
2011-04-04 06:49:38 51°13.643 2°55.946 118.6 4.7 298 -999
2011-04-04 06:49:42 51°13.646 2°55.939 118.6 4.8 298 -999
2011-04-04 06:49:48 51°13.649 2°55.928 118.8 4.8 298 -999
2011-04-04 06:49:53 51°13.653 2°55.918 119 4.9 298 -999
2011-04-04 06:49:58 51°13.656 2°55.908 119 4.9 298 -999
2011-04-04 06:50:03 51°13.659 2°55.899 118.8 4.8 298 -999
2011-04-04 06:50:08 51°13.661 2°55.889 118.3 4.8 297 -999
2011-04-04 06:50:13 51°13.665 2°55.88 117.6 4.8 297 -999
2011-04-04 06:50:18 51°13.667 2°55.87 116.9 4.8 296 -999
2011-04-04 06:50:23 51°13.67 2°55.86 115.9 4.8 294 -999
2011-04-04 06:50:28 51°13.673 2°55.85 114.5 4.8 293 -999
2011-04-04 06:50:32 51°13.675 2°55.842 112.6 4.9 291 -999
2011-04-04 06:50:38 51°13.677 2°55.83 110.8 4.9 289 -999
2011-04-04 06:50:43 51°13.679 2°55.82 109.1 4.9 288 -999
2011-04-04 06:50:48 51°13.681 2°55.809 108 4.9 287 -999
2011-04-04 06:50:53 51°13.683 2°55.799 107 4.9 287 -999
2011-04-04 06:50:58 51°13.685 2°55.789 106.1 4.5 286 -999
2011-04-04 06:51:03 51°13.686 2°55.78 105.6 4.3 287 -999
2011-04-04 06:51:08 51°13.688 2°55.772 105.4 3.9 287 -999
2011-04-04 06:51:13 51°13.689 2°55.765 105 3.4 286 -999
2011-04-04 06:51:18 51°13.691 2°55.758 104.1 3.2 288 -999
2011-04-04 06:51:23 51°13.692 2°55.753 103.5 2.8 287 5
2011-04-04 06:51:28 51°13.693 2°55.748 102.7 2.3 288 10.9
2011-04-04 06:51:33 51°13.694 2°55.744 101.5 1.8 288 11
2011-04-04 06:51:38 51°13.694 2°55.741 99.1 1.4 287 4.9
2011-04-04 06:51:42 51°13.695 2°55.74 95.4 1 295 11.3
2011-04-04 06:51:48 51°13.695 2°55.739 90.7 0.6 309 11.5
2011-04-04 06:51:52 51°13.696 2°55.738 87.4 0.4 355 11.4
2011-04-04 06:51:58 51°13.697 2°55.739 83.3 0.6 32 11.3
2011-04-04 06:52:02 51°13.698 2°55.74 78.7 0.8 40 11.2
2011-04-04 06:52:07 51°13.699 2°55.742 73.4 1.2 46 10.8
2011-04-04 06:52:12 51°13.7 2°55.744 67.9 1.4 44 10.8
2011-04-04 06:52:17 51°13.701 2°55.747 61.9 1.6 42 11.1
2011-04-04 06:52:22 51°13.703 2°55.749 55.8 1.9 39 11.4
2011-04-04 06:52:27 51°13.706 2°55.752 48.4 2.1 34 11.4
2011-04-04 06:52:32 51°13.708 2°55.755 42.2 2.2 32 11.5
2011-04-04 06:52:37 51°13.711 2°55.757 36.3 2 24 -999
2011-04-04 06:52:42 51°13.713 2°55.758 30.8 1.6 22 11.3
2011-04-04 06:52:46 51°13.714 2°55.759 27.2 1.1 26 10.8
2011-04-04 06:52:51 51°13.715 2°55.759 24.6 0.6 16 10.6
2011-04-04 06:52:57 51°13.715 2°55.76 20.5 0.1 70 10.4
2011-04-04 06:53:02 51°13.715 2°55.76 17 0.4 184 10.5
2011-04-04 06:53:07 51°13.714 2°55.76 14.3 0.8 181 10.5
2011-04-04 06:53:12 51°13.712 2°55.759 12.3 1.2 184 10.8
2011-04-04 06:53:17 51°13.71 2°55.759 10.9 1.5 185 11.2
2011-04-04 06:53:22 51°13.707 2°55.758 10.1 1.8 186 -999
2011-04-04 06:53:27 51°13.705 2°55.758 9.5 1.7 186 -999
2011-04-04 06:53:33 51°13.704 2°55.76 9.5 1 188 -999
2011-04-04 06:53:38 51°13.703 2°55.759 9.3 0.3 198 -999
2011-04-04 06:53:43 51°13.703 2°55.759 6.2 0.1 342 -999
2011-04-04 06:53:48 51°13.704 2°55.759 2.2 0.6 350 -999
2011-04-04 06:53:53 51°13.706 2°55.758 357.5 1.1 351 -999
2011-04-04 06:53:57 51°13.707 2°55.758 352.3 1.7 347 -999
2011-04-04 06:54:02 51°13.71 2°55.756 346.3 2.4 343 -999
2011-04-04 06:54:07 51°13.714 2°55.753 339.3 3 335 -999
2011-04-04 06:54:13 51°13.719 2°55.748 334.5 3.6 331 -999
2011-04-04 06:54:18 51°13.724 2°55.744 330.8 4.2 329 4.8
2011-04-04 06:54:22 51°13.728 2°55.739 328.2 4.7 326 -999
2011-04-04 06:54:27 51°13.734 2°55.733 326.5 5.2 324 10.6
2011-04-04 06:54:32 51°13.74 2°55.726 325.7 5.7 324 10
2011-04-04 06:54:38 51°13.749 2°55.717 325.4 6.1 326 10.3
2011-04-04 06:54:43 51°13.756 2°55.708 325.8 6.4 326 10.3
2011-04-04 06:54:48 51°13.764 2°55.7 326.3 6.7 327 9.8
2011-04-04 06:54:52 51°13.77 2°55.694 327.3 6.9 328 9.9
2011-04-04 06:54:57 51°13.778 2°55.685 328.4 7.2 328 9.9
2011-04-04 06:55:02 51°13.787 2°55.677 329.1 7.3 328 9.9
2011-04-04 06:55:07 51°13.796 2°55.668 329.4 7.5 328 9.8
2011-04-04 06:55:12 51°13.805 2°55.659 329.7 7.7 329 9.8
2011-04-04 06:55:17 51°13.814 2°55.65 330.3 7.8 330 9.7
2011-04-04 06:55:22 51°13.824 2°55.642 331.2 7.9 332 9.7
2011-04-04 06:55:27 51°13.834 2°55.633 332.9 8 332 9.7
2011-04-04 06:55:32 51°13.844 2°55.625 334.3 8.1 333 9.7
2011-04-04 06:55:36 51°13.852 2°55.619 335.1 8.2 333 9.7
2011-04-04 06:55:41 51°13.862 2°55.61 335.3 8.3 333 9.7
2011-04-04 06:55:47 51°13.875 2°55.601 335.2 8.3 334 -999
2011-04-04 06:55:52 51°13.885 2°55.593 335.5 8.4 334 9.7
2011-04-04 06:55:56 51°13.893 2°55.586 336.2 8.4 335 10
2011-04-04 06:56:01 51°13.904 2°55.578 336.8 8.5 335 9.7
2011-04-04 06:56:06 51°13.915 2°55.571 337.1 8.5 335 9.8
2011-04-04 06:56:11 51°13.925 2°55.562 336.9 8.5 335 9.8
2011-04-04 06:56:16 51°13.936 2°55.555 336.6 8.5 336 9.7
2011-04-04 06:56:20 51°13.945 2°55.549 336.8 8.5 335 9.7
2011-04-04 06:56:25 51°13.956 2°55.541 336.9 8.5 335 9.7
2011-04-04 06:56:30 51°13.966 2°55.533 336.7 8.5 335 9.7
2011-04-04 06:56:35 51°13.977 2°55.525 336.8 8.5 336 9.7
2011-04-04 06:56:40 51°13.988 2°55.517 337.5 8.6 336 9.7
2011-04-04 06:56:44 51°13.997 2°55.512 337.7 8.6 336 9.7
2011-04-04 06:56:49 51°14.008 2°55.504 337.7 8.6 336 9.6
2011-04-04 06:56:54 51°14.019 2°55.497 338.1 8.6 336 9.5
2011-04-04 06:56:59 51°14.03 2°55.49 338.3 8.6 337 -999
2011-04-04 06:57:04 51°14.04 2°55.482 338.3 8.6 336 9.6
2011-04-04 06:57:09 51°14.052 2°55.474 338.3 8.8 337 9.6
2011-04-04 06:57:15 51°14.065 2°55.464 338.3 8.9 336 9.6
2011-04-04 06:57:20 51°14.076 2°55.456 338.4 9 336 -999
2011-04-04 06:57:25 51°14.088 2°55.448 338.6 9.1 336 -999
2011-04-04 06:57:30 51°14.1 2°55.44 338 9.2 335 9.5
2011-04-04 06:57:36 51°14.114 2°55.429 337.6 9.3 335 -999
2011-04-04 06:57:41 51°14.125 2°55.42 337.5 9.3 335 9.5
2011-04-04 06:57:47 51°14.139 2°55.409 337 9.4 334 -999
2011-04-04 06:57:52 51°14.151 2°55.4 335.8 9.5 333 -999
2011-04-04 06:57:57 51°14.163 2°55.39 335 9.6 332 9.4
2011-04-04 06:58:02 51°14.175 2°55.38 334.4 9.7 330 9.4
2011-04-04 06:58:07 51°14.186 2°55.369 332.9 9.7 330 9.4
2011-04-04 06:58:12 51°14.198 2°55.358 331.7 9.8 329 -999
2011-04-04 06:58:17 51°14.209 2°55.346 331.1 9.8 329 9.4
2011-04-04 06:58:22 51°14.221 2°55.335 331.1 9.9 328 9.4
2011-04-04 06:58:27 51°14.233 2°55.323 330.2 10 328 9.4
2011-04-04 06:58:32 51°14.244 2°55.311 329.6 10 328 9.4
2011-04-04 06:58:37 51°14.256 2°55.299 329.5 10.1 327 -999
2011-04-04 06:58:42 51°14.268 2°55.287 328.9 10.2 327 9.4
2011-04-04 06:58:48 51°14.282 2°55.272 328.8 10.3 328 -999
2011-04-04 06:58:52 51°14.292 2°55.262 329.3 10.4 327 -999
2011-04-04 06:58:58 51°14.306 2°55.247 328.9 10.4 326 -999
2011-04-04 06:59:03 51°14.319 2°55.235 328.6 10.5 328 -999
2011-04-04 06:59:08 51°14.331 2°55.222 329.6 10.5 328 9.3
2011-04-04 06:59:12 51°14.341 2°55.212 330 10.7 328 9
2011-04-04 06:59:17 51°14.354 2°55.2 330 10.8 329 9.2
2011-04-04 06:59:22 51°14.367 2°55.187 330 11 327 9.2
2011-04-04 06:59:27 51°14.379 2°55.173 329.4 11 328 9.4
2011-04-04 06:59:32 51°14.392 2°55.16 329.1 11.1 328 9.2
2011-04-04 06:59:36 51°14.403 2°55.15 329.4 11.2 328 9.4
2011-04-04 06:59:41 51°14.416 2°55.137 330.2 11.2 328 9.4
2011-04-04 06:59:46 51°14.43 2°55.124 330.4 11.3 328 9.5
2011-04-04 06:59:51 51°14.443 2°55.11 330 11.3 326 9.2
2011-04-04 06:59:56 51°14.455 2°55.096 328.6 11.3 326 9.7
2011-04-04 07:00:00 51°14.466 2°55.085 328 11.4 327 9.7
2011-04-04 07:00:05 51°14.479 2°55.071 327.8 11.4 326 9.8
2011-04-04 07:00:10 51°14.493 2°55.057 327.7 11.5 328 9.9
2011-04-04 07:00:15 51°14.506 2°55.044 328.2 11.5 326 9.5
2011-04-04 07:00:20 51°14.519 2°55.029 327.8 11.6 326 10.3
2011-04-04 07:00:24 51°14.53 2°55.017 327.3 11.6 324 10.8
2011-04-04 07:00:29 51°14.542 2°55.001 326.8 11.8 323 10.1
2011-04-04 07:00:34 51°14.555 2°54.984 326.3 11.9 320 10.1
2011-04-04 07:00:39 51°14.568 2°54.967 325.5 12 319 10.4
2011-04-04 07:00:44 51°14.58 2°54.949 324.5 12 318 10.4
2011-04-04 07:00:49 51°14.593 2°54.932 325.5 12 320 10.4
2011-04-04 07:00:54 51°14.606 2°54.915 327 12 322 10.1
2011-04-04 07:00:59 51°14.619 2°54.899 328.2 12 322 10
2011-04-04 07:01:04 51°14.632 2°54.883 328.8 12.1 323 10.7
2011-04-04 07:01:09 51°14.645 2°54.866 328.4 12.1 321 10.8
2011-04-04 07:01:14 51°14.659 2°54.85 328.6 12.2 323 10.4
2011-04-04 07:01:19 51°14.672 2°54.833 328.3 12.3 321 10.4
2011-04-04 07:01:24 51°14.685 2°54.816 327.9 12.4 322 10.2
2011-04-04 07:01:29 51°14.699 2°54.799 327.8 12.5 321 10.7
2011-04-04 07:01:34 51°14.713 2°54.783 327.7 12.4 323 11
2011-04-04 07:01:39 51°14.727 2°54.766 328.9 12.5 324 11.1
2011-04-04 07:01:44 51°14.741 2°54.75 329.9 12.6 324 10.7
2011-04-04 07:01:49 51°14.755 2°54.733 329.9 12.6 324 10.6
2011-04-04 07:01:54 51°14.769 2°54.717 330.1 12.7 324 10.7
2011-04-04 07:01:59 51°14.783 2°54.7 329.8 12.7 324 10.7
2011-04-04 07:02:04 51°14.798 2°54.684 329.8 12.7 324 10.8
2011-04-04 07:02:09 51°14.812 2°54.668 329.9 12.8 324 10.9
2011-04-04 07:02:14 51°14.826 2°54.651 329.9 12.9 324 10.5
2011-04-04 07:02:19 51°14.841 2°54.634 329.5 12.9 323 10.4
2011-04-04 07:02:24 51°14.855 2°54.617 329 12.9 324 10.8
2011-04-04 07:02:29 51°14.87 2°54.601 329 12.9 324 10.8
2011-04-04 07:02:34 51°14.885 2°54.584 329.3 12.9 325 10.8
2011-04-04 07:02:39 51°14.899 2°54.568 329.6 12.9 324 10.9
2011-04-04 07:02:44 51°14.914 2°54.551 329.5 12.9 325 10.5
2011-04-04 07:02:49 51°14.928 2°54.535 329.2 12.8 324 10.4
2011-04-04 07:02:54 51°14.943 2°54.518 329.1 12.8 324 10.5
2011-04-04 07:02:59 51°14.957 2°54.502 328.9 12.7 324 10.1
2011-04-04 07:03:04 51°14.971 2°54.485 328.4 12.7 324 10.2
2011-04-04 07:03:09 51°14.985 2°54.469 328.3 12.7 324 10.3
2011-04-04 07:03:14 51°15 2°54.452 328.6 12.8 324 10.4
2011-04-04 07:03:19 51°15.014 2°54.436 328.8 12.7 324 9.9
2011-04-04 07:03:24 51°15.029 2°54.42 328.9 12.7 324 10.3
2011-04-04 07:03:29 51°15.043 2°54.403 329 12.7 324 10.5
2011-04-04 07:03:34 51°15.057 2°54.387 329 12.7 325 10.6
2011-04-04 07:03:39 51°15.072 2°54.371 329.1 12.8 325 10.6
2011-04-04 07:03:44 51°15.086 2°54.354 329 12.7 324 10.7
2011-04-04 07:03:49 51°15.1 2°54.337 328.7 12.8 323 10.7
2011-04-04 07:03:54 51°15.114 2°54.32 327.8 12.7 323 11.1
2011-04-04 07:03:59 51°15.128 2°54.303 327.9 12.8 323 11
2011-04-04 07:04:04 51°15.142 2°54.286 327.8 12.8 323 10.5
2011-04-04 07:04:09 51°15.156 2°54.269 328.2 12.7 323 10.7
2011-04-04 07:04:14 51°15.171 2°54.252 328.8 12.8 323 10.9
2011-04-04 07:04:19 51°15.185 2°54.235 329.1 12.7 325 11
2011-04-04 07:04:24 51°15.199 2°54.219 329.9 12.7 324 10.7
2011-04-04 07:04:29 51°15.214 2°54.203 330.8 12.8 324 10.9
2011-04-04 07:04:34 51°15.228 2°54.185 330.2 12.8 323 10.8
2011-04-04 07:04:39 51°15.242 2°54.168 329.2 12.8 322 11
2011-04-04 07:04:44 51°15.256 2°54.151 328 12.8 321 11
2011-04-04 07:04:49 51°15.269 2°54.132 326.8 12.8 320 10.5
2011-04-04 07:04:54 51°15.283 2°54.114 326.1 12.9 320 10.5
2011-04-04 07:04:59 51°15.297 2°54.096 326.2 12.8 320 10.4
2011-04-04 07:05:04 51°15.31 2°54.078 326.5 12.8 321 10.3
2011-04-04 07:05:09 51°15.324 2°54.061 326.7 12.8 321 10.5
2011-04-04 07:05:14 51°15.338 2°54.043 327.1 12.8 321 10.4
2011-04-04 07:05:19 51°15.352 2°54.026 327.7 12.9 322 10.6
2011-04-04 07:05:24 51°15.366 2°54.008 328.2 12.9 322 10.8
2011-04-04 07:05:29 51°15.38 2°53.991 328.5 12.9 323 10.5
2011-04-04 07:05:34 51°15.395 2°53.973 328.9 12.9 323 10.9
2011-04-04 07:05:39 51°15.409 2°53.956 329 12.9 323 11.3
2011-04-04 07:05:44 51°15.423 2°53.939 329 12.9 323 11.1
2011-04-04 07:05:49 51°15.437 2°53.922 329 12.9 323 10.6
2011-04-04 07:05:54 51°15.451 2°53.904 328.9 12.9 322 10.9
2011-04-04 07:05:59 51°15.465 2°53.886 328.2 12.9 322 10.5
2011-04-04 07:06:04 51°15.479 2°53.868 327.9 12.9 322 10.9
2011-04-04 07:06:09 51°15.493 2°53.851 327.9 12.9 321 10.7
2011-04-04 07:06:14 51°15.507 2°53.833 327.8 13 322 11
2011-04-04 07:06:19 51°15.522 2°53.815 328.1 13 323 10.8
2011-04-04 07:06:24 51°15.536 2°53.798 328.6 12.9 323 10.9
2011-04-04 07:06:29 51°15.55 2°53.781 329.4 12.9 324 10.6
2011-04-04 07:06:34 51°15.565 2°53.765 329.8 12.9 324 10.9
2011-04-04 07:06:39 51°15.579 2°53.748 330.2 12.9 324 10.7
2011-04-04 07:06:44 51°15.594 2°53.731 330.3 12.9 325 10.5
2011-04-04 07:06:49 51°15.608 2°53.715 330.5 12.9 325 10.8
2011-04-04 07:06:54 51°15.623 2°53.698 330.6 12.9 324 10.9
2011-04-04 07:06:59 51°15.637 2°53.682 330.2 12.8 324 10.8
2011-04-04 07:07:04 51°15.651 2°53.665 329.8 12.8 324 11
2011-04-04 07:07:09 51°15.666 2°53.648 329.1 12.8 323 11
2011-04-04 07:07:14 51°15.68 2°53.631 328.9 12.8 323 10.9
2011-04-04 07:07:19 51°15.694 2°53.615 328.9 12.8 325 11.3
2011-04-04 07:07:24 51°15.709 2°53.598 330.1 12.8 326 10.9
2011-04-04 07:07:29 51°15.724 2°53.583 331.3 12.8 328 11.4
2011-04-04 07:07:34 51°15.739 2°53.569 332.9 12.8 329 11
2011-04-04 07:07:39 51°15.754 2°53.554 334.1 12.7 330 11.2
2011-04-04 07:07:44 51°15.77 2°53.541 335.2 12.7 331 11.2
2011-04-04 07:07:49 51°15.785 2°53.527 335.9 12.7 331 11.2
2011-04-04 07:07:54 51°15.801 2°53.514 336.5 12.7 332 11
2011-04-04 07:07:59 51°15.816 2°53.501 337.5 12.7 332 11.1
2011-04-04 07:08:04 51°15.832 2°53.488 337.6 12.7 333 10.7
2011-04-04 07:08:09 51°15.847 2°53.475 338 12.7 332 10.6
2011-04-04 07:08:14 51°15.863 2°53.462 337.9 12.7 332 11
2011-04-04 07:08:19 51°15.878 2°53.448 337.9 12.7 331 11.3
2011-04-04 07:08:24 51°15.894 2°53.435 337.6 12.7 331 11
2011-04-04 07:08:29 51°15.909 2°53.421 337.6 12.7 331 10.4
2011-04-04 07:08:34 51°15.924 2°53.408 337.2 12.7 331 10.3
2011-04-04 07:08:39 51°15.94 2°53.394 337.6 12.7 332 11
2011-04-04 07:08:44 51°15.955 2°53.381 337.7 12.7 331 10.4
2011-04-04 07:08:49 51°15.971 2°53.367 337.6 12.7 332 10.4
2011-04-04 07:08:54 51°15.986 2°53.354 337.6 12.7 331 10.3
2011-04-04 07:09:00 51°16.005 2°53.338 337.6 12.7 331 10.4
2011-04-04 07:09:04 51°16.017 2°53.326 337.3 12.7 330 10.4
2011-04-04 07:09:09 51°16.031 2°53.313 337.1 12.7 330 10.4
2011-04-04 07:09:14 51°16.047 2°53.299 337 12.7 331 10.5
2011-04-04 07:09:19 51°16.062 2°53.285 337 12.7 331 10.5
2011-04-04 07:09:24 51°16.077 2°53.271 337.5 12.7 331 10.6
2011-04-04 07:09:29 51°16.093 2°53.258 337.9 12.7 332 10.6
2011-04-04 07:09:34 51°16.108 2°53.244 338.3 12.7 332 10.6
2011-04-04 07:09:39 51°16.124 2°53.232 338.6 12.7 333 10.6
2011-04-04 07:09:44 51°16.139 2°53.219 338.6 12.7 332 10.7
2011-04-04 07:09:49 51°16.155 2°53.205 338.3 12.7 332 10.7
2011-04-04 07:09:54 51°16.17 2°53.192 338.1 12.7 331 10.6
2011-04-04 07:09:59 51°16.186 2°53.178 337.4 12.7 331 10.6
2011-04-04 07:10:04 51°16.201 2°53.164 336.9 12.7 331 10.6
2011-04-04 07:10:09 51°16.217 2°53.151 336.9 12.7 331 10.8
2011-04-04 07:10:14 51°16.232 2°53.137 336.8 12.7 331 10.7
2011-04-04 07:10:19 51°16.248 2°53.124 336.8 12.7 331 10.8
2011-04-04 07:10:24 51°16.263 2°53.111 337.2 12.6 332 10.7
2011-04-04 07:10:29 51°16.279 2°53.098 338.6 12.6 333 10.8
2011-04-04 07:10:34 51°16.295 2°53.086 339.2 12.6 334 10.9
2011-04-04 07:10:39 51°16.31 2°53.073 339.6 12.6 333 10.8
2011-04-04 07:10:44 51°16.326 2°53.061 339.9 12.6 334 10.8
2011-04-04 07:10:49 51°16.342 2°53.049 339.8 12.6 334 10.7
2011-04-04 07:10:54 51°16.357 2°53.036 339.9 12.6 333 10.8
2011-04-04 07:10:59 51°16.373 2°53.023 339.5 12.6 333 10.7
2011-04-04 07:11:04 51°16.389 2°53.011 339 12.6 332 10.8
2011-04-04 07:11:09 51°16.404 2°52.998 338.6 12.7 333 10.8
2011-04-04 07:11:14 51°16.42 2°52.985 338.5 12.6 332 10.6
2011-04-04 07:11:19 51°16.435 2°52.972 338.7 12.6 334 10.7
2011-04-04 07:11:24 51°16.451 2°52.96 339.6 12.6 333 10.7
2011-04-04 07:11:29 51°16.467 2°52.948 339.8 12.6 335 10.7
2011-04-04 07:11:34 51°16.483 2°52.937 340.1 12.6 334 10.7
2011-04-04 07:11:40 51°16.502 2°52.922 340.4 12.6 335 10.7
2011-04-04 07:11:44 51°16.514 2°52.913 340.3 12.6 335 10.6
2011-04-04 07:11:48 51°16.527 2°52.904 340.5 12.5 335 10.7
2011-04-04 07:11:54 51°16.546 2°52.89 340.3 12.5 336 10.5
2011-04-04 07:11:59 51°16.562 2°52.878 340.2 12.5 335 10.5
2011-04-04 07:12:04 51°16.578 2°52.867 339.8 12.5 336 10.5
2011-04-04 07:12:09 51°16.593 2°52.856 339.8 12.5 335 10.4
2011-04-04 07:12:14 51°16.609 2°52.844 339.8 12.5 335 10.3
2011-04-04 07:12:19 51°16.625 2°52.832 339.3 12.5 335 10.3
2011-04-04 07:12:24 51°16.641 2°52.821 339.2 12.5 335 10.2
2011-04-04 07:12:28 51°16.653 2°52.811 339.1 12.5 335 10
2011-04-04 07:12:34 51°16.672 2°52.797 339 12.5 335 9.9
2011-04-04 07:12:39 51°16.687 2°52.785 338.5 12.4 335 9.8
2011-04-04 07:12:44 51°16.703 2°52.773 338.3 12.5 334 9.4
2011-04-04 07:12:49 51°16.719 2°52.762 338.1 12.4 335 9.4
2011-04-04 07:12:54 51°16.734 2°52.75 338.3 12.3 335 8.9
2011-04-04 07:13:00 51°16.753 2°52.737 339 12.3 336 9
2011-04-04 07:13:04 51°16.765 2°52.729 339.8 12.2 338 8.5
2011-04-04 07:13:09 51°16.781 2°52.719 341.1 12.1 339 8.6
2011-04-04 07:13:14 51°16.797 2°52.71 342.7 12.1 341 8.6
2011-04-04 07:13:20 51°16.816 2°52.7 344.1 12.1 342 8.7
2011-04-04 07:13:24 51°16.828 2°52.693 345.6 12.1 344 8.6
2011-04-04 07:13:28 51°16.841 2°52.687 347.2 12.1 344 8.4
2011-04-04 07:13:34 51°16.861 2°52.68 348.4 12 347 8
2011-04-04 07:13:39 51°16.877 2°52.674 350.1 12 347 8.1
2011-04-04 07:13:44 51°16.894 2°52.67 351.4 12 349 8.3
2011-04-04 07:13:49 51°16.91 2°52.664 351.9 12.1 348 8.5
2011-04-04 07:13:54 51°16.926 2°52.659 352.2 12.1 348 8.4
2011-04-04 07:14:00 51°16.946 2°52.651 351.9 12.2 347 8.8
2011-04-04 07:14:04 51°16.959 2°52.646 351 12.2 347 8.6
2011-04-04 07:14:08 51°16.972 2°52.641 350.7 12.2 346 8.7
2011-04-04 07:14:14 51°16.992 2°52.634 349.9 12.2 347 8.8
2011-04-04 07:14:19 51°17.009 2°52.627 350.1 12.2 348 8.6
2011-04-04 07:14:24 51°17.025 2°52.623 351.5 12.2 350 8.8
2011-04-04 07:14:29 51°17.042 2°52.619 353.7 12.2 352 8.8
2011-04-04 07:14:34 51°17.059 2°52.616 356.1 12.1 355 8.4
2011-04-04 07:14:39 51°17.075 2°52.615 358.2 12.1 356 8.6
2011-04-04 07:14:44 51°17.092 2°52.614 359.5 12 358 8.5
2011-04-04 07:14:48 51°17.105 2°52.613 1 12 358 8.5
2011-04-04 07:14:54 51°17.125 2°52.612 1.9 12 359 8.5
2011-04-04 07:14:59 51°17.142 2°52.611 2.5 12 357 8.2
2011-04-04 07:15:04 51°17.158 2°52.61 1.7 12 358 8.5
2011-04-04 07:15:09 51°17.175 2°52.609 1 12 357 8.5
2011-04-04 07:15:14 51°17.192 2°52.607 0.8 12.1 355 8.5
2011-04-04 07:15:20 51°17.212 2°52.604 359.9 12.1 355 8.6
2011-04-04 07:15:24 51°17.225 2°52.602 358.7 12.1 354 8.6
2011-04-04 07:15:28 51°17.239 2°52.6 358.1 12.1 353 8.5
2011-04-04 07:15:34 51°17.259 2°52.596 356.9 12.1 353 8.7
2011-04-04 07:15:39 51°17.275 2°52.592 356.8 12.1 352 8.7
2011-04-04 07:15:44 51°17.292 2°52.589 357.2 12.2 353 8.7
2011-04-04 07:15:49 51°17.309 2°52.586 356.9 12.2 353 9
2011-04-04 07:15:54 51°17.326 2°52.583 357.3 12.2 354 9
2011-04-04 07:16:00 51°17.346 2°52.58 358.1 12.2 354 8.8
2011-04-04 07:16:04 51°17.359 2°52.578 358.3 12.2 355 9
2011-04-04 07:16:09 51°17.376 2°52.575 358.3 12.1 354 8.8
2011-04-04 07:16:14 51°17.393 2°52.573 358.7 12.2 356 9.1
2011-04-04 07:16:19 51°17.41 2°52.571 359.4 12.2 356 8.8
2011-04-04 07:16:24 51°17.427 2°52.569 0.6 12.2 357 8.9
2011-04-04 07:16:29 51°17.444 2°52.568 0.8 12.1 357 9.1
2011-04-04 07:16:34 51°17.46 2°52.567 1.2 12.1 359 8.9
2011-04-04 07:16:39 51°17.477 2°52.566 2.5 12.2 357 9
2011-04-04 07:16:44 51°17.494 2°52.565 1.7 12.1 357 9.1
2011-04-04 07:16:49 51°17.511 2°52.562 0.9 12.1 355 9
2011-04-04 07:16:54 51°17.527 2°52.561 0.2 12.2 355 9
2011-04-04 07:16:59 51°17.544 2°52.558 359.5 12.1 354 9.3
2011-04-04 07:17:04 51°17.561 2°52.555 358.7 12.1 354 9.2
2011-04-04 07:17:08 51°17.574 2°52.553 358.6 12.1 353 8.8
2011-04-04 07:17:14 51°17.594 2°52.549 357.9 12.1 354 9.2
2011-04-04 07:17:19 51°17.611 2°52.546 357.6 12.1 353 9.1
2011-04-04 07:17:24 51°17.628 2°52.543 358.1 12.1 355 9.2
2011-04-04 07:17:29 51°17.644 2°52.54 358.4 12.1 354 9
2011-04-04 07:17:34 51°17.661 2°52.539 359.7 12.1 356 9.3
2011-04-04 07:17:40 51°17.681 2°52.536 359.9 12.1 357 9.2
2011-04-04 07:17:44 51°17.694 2°52.536 1.1 12.1 358 9.1
2011-04-04 07:17:48 51°17.708 2°52.535 1.6 12 -999 9
2011-04-04 07:17:55 51°17.731 2°52.538 5 11.9 6 9.1
2011-04-04 07:17:59 51°17.744 2°52.54 8.5 11.9 7 9
2011-04-04 07:18:04 51°17.76 2°52.545 11.2 11.8 10 9
2011-04-04 07:18:09 51°17.776 2°52.55 13.2 11.8 10 9.1
2011-04-04 07:18:14 51°17.792 2°52.556 15.6 11.8 15 9.2
2011-04-04 07:18:20 51°17.811 2°52.564 17.3 11.8 15 9.1
2011-04-04 07:18:24 51°17.823 2°52.571 18.7 11.8 17 9.1
2011-04-04 07:18:28 51°17.836 2°52.577 20.1 11.8 17 9.2
2011-04-04 07:18:34 51°17.855 2°52.587 20.7 11.9 20 9.2
2011-04-04 07:18:39 51°17.87 2°52.596 22.2 11.9 19 9.2
2011-04-04 07:18:44 51°17.886 2°52.605 22.3 11.7 21 9.4
2011-04-04 07:18:49 51°17.901 2°52.613 23 11.8 18 9.1
2011-04-04 07:18:54 51°17.916 2°52.622 22 11.8 19 9.2
2011-04-04 07:18:59 51°17.932 2°52.63 21.7 11.8 19 9.3
2011-04-04 07:19:04 51°17.947 2°52.638 21.9 11.8 18 9.4
2011-04-04 07:19:08 51°17.96 2°52.645 21.3 11.9 18 9.4
2011-04-04 07:19:14 51°17.979 2°52.654 21 11.8 16 9.4
2011-04-04 07:19:19 51°17.994 2°52.662 20.5 11.8 18 9.5
2011-04-04 07:19:24 51°18.01 2°52.669 19.7 11.9 15 9.5
2011-04-04 07:19:29 51°18.026 2°52.676 19.2 11.9 17 9.4
2011-04-04 07:19:34 51°18.042 2°52.684 20 11.9 18 9.3
2011-04-04 07:19:40 51°18.06 2°52.696 21.8 11.8 22 9.5
2011-04-04 07:19:44 51°18.072 2°52.704 24.2 11.8 22 9.6
2011-04-04 07:19:48 51°18.084 2°52.713 26.5 11.8 27 9.4
2011-04-04 07:19:54 51°18.101 2°52.727 28.6 11.7 29 9.5
2011-04-04 07:19:59 51°18.115 2°52.74 30.6 11.7 30 9.7
2011-04-04 07:20:04 51°18.129 2°52.754 31.8 11.8 31 9.5
2011-04-04 07:20:09 51°18.143 2°52.767 33.2 11.8 32 9.4
2011-04-04 07:20:14 51°18.157 2°52.781 33.9 11.7 32 9.6
2011-04-04 07:20:20 51°18.174 2°52.797 33.6 11.7 31 9.7
2011-04-04 07:20:24 51°18.185 2°52.808 33.2 11.8 31 9.8
2011-04-04 07:20:28 51°18.197 2°52.817 32.4 11.7 28 9.8
2011-04-04 07:20:34 51°18.214 2°52.832 31.3 11.7 29 9.7
2011-04-04 07:20:39 51°18.228 2°52.844 30.9 11.8 26 9.8
2011-04-04 07:20:44 51°18.243 2°52.856 29.7 11.8 27 9.8
2011-04-04 07:20:49 51°18.258 2°52.868 29.7 11.8 25 9.9
2011-04-04 07:20:54 51°18.273 2°52.878 28.4 11.7 23 9.8
2011-04-04 07:20:59 51°18.288 2°52.889 27 11.8 24 9.9
2011-04-04 07:21:04 51°18.303 2°52.898 26.3 11.9 21 10
2011-04-04 07:21:08 51°18.315 2°52.906 25.5 11.9 21 10
2011-04-04 07:21:14 51°18.333 2°52.917 24.7 11.9 22 10.1
2011-04-04 07:21:19 51°18.349 2°52.927 24.5 11.8 21 10.1
2011-04-04 07:21:24 51°18.364 2°52.936 24.6 11.9 21 10
2011-04-04 07:21:29 51°18.38 2°52.945 24 11.8 21 10
2011-04-04 07:21:34 51°18.395 2°52.955 24.4 11.8 20 10.1
2011-04-04 07:21:39 51°18.41 2°52.963 23.9 11.8 20 10
2011-04-04 07:21:44 51°18.426 2°52.972 23.3 11.8 20 10.1
2011-04-04 07:21:48 51°18.438 2°52.978 22.9 11.8 19 10.1
2011-04-04 07:21:54 51°18.457 2°52.989 23.3 11.9 20 10.1
2011-04-04 07:21:59 51°18.472 2°52.998 23.5 11.8 21 10.3
2011-04-04 07:22:04 51°18.487 2°53.008 24.4 11.7 22 10.1
2011-04-04 07:22:09 51°18.502 2°53.018 25.1 11.7 21 10.2
2011-04-04 07:22:14 51°18.518 2°53.027 25.5 11.8 21 10.2
2011-04-04 07:22:20 51°18.536 2°53.039 25.2 11.8 21 10.3
2011-04-04 07:22:24 51°18.548 2°53.046 24.8 11.7 20 10.3
2011-04-04 07:22:29 51°18.564 2°53.054 23.7 11.7 18 10.3
2011-04-04 07:22:34 51°18.579 2°53.062 22.9 11.7 19 10.4
2011-04-04 07:22:40 51°18.597 2°53.072 21.9 11.8 18 10.3
2011-04-04 07:22:44 51°18.61 2°53.079 22.5 11.7 20 10.3
2011-04-04 07:22:48 51°18.622 2°53.085 22.7 11.7 19 10.4
2011-04-04 07:22:54 51°18.64 2°53.096 23.3 11.7 19 10.4
2011-04-04 07:22:59 51°18.656 2°53.104 23 11.8 18 10.4
2011-04-04 07:23:04 51°18.672 2°53.112 22.6 11.8 18 10.4
2011-04-04 07:23:09 51°18.687 2°53.12 22 11.8 17 10.5
2011-04-04 07:23:14 51°18.703 2°53.127 21.5 11.8 17 10.4
2011-04-04 07:23:19 51°18.719 2°53.135 21.4 11.9 16 10.3
2011-04-04 07:23:24 51°18.734 2°53.143 21.1 11.8 17 10.5
2011-04-04 07:23:28 51°18.747 2°53.149 21.1 11.8 17 10.5
2011-04-04 07:23:34 51°18.766 2°53.158 21.2 11.9 17 10.6
2011-04-04 07:23:39 51°18.782 2°53.165 21.1 11.9 16 10.5
2011-04-04 07:23:44 51°18.797 2°53.173 21.1 11.8 17 10.5
2011-04-04 07:23:49 51°18.813 2°53.18 21 11.8 16 10.6
2011-04-04 07:23:54 51°18.829 2°53.188 21 11.9 19 10.6
2011-04-04 07:24:00 51°18.847 2°53.198 21.8 11.9 18 10.7
2011-04-04 07:24:04 51°18.86 2°53.204 22.1 11.9 18 10.7
2011-04-04 07:24:08 51°18.873 2°53.21 22 11.8 16 10.6
2011-04-04 07:24:14 51°18.891 2°53.219 21.6 11.7 16 10.7
2011-04-04 07:24:19 51°18.907 2°53.226 21.1 11.8 16 10.6
2011-04-04 07:24:24 51°18.923 2°53.234 21.5 11.8 17 10.7
2011-04-04 07:24:29 51°18.938 2°53.241 21.5 11.7 16 10.8
2011-04-04 07:24:34 51°18.954 2°53.248 21.3 11.7 16 10.7
2011-04-04 07:24:40 51°18.972 2°53.256 21.1 11.7 16 10.8
2011-04-04 07:24:44 51°18.985 2°53.263 21.1 11.7 17 10.7
2011-04-04 07:24:48 51°18.997 2°53.269 21.8 11.7 16 10.8
2011-04-04 07:24:54 51°19.016 2°53.278 22.1 11.6 19 11
2011-04-04 07:24:59 51°19.031 2°53.286 22.8 11.6 17 10.9
2011-04-04 07:25:04 51°19.046 2°53.294 22.8 11.6 18 11
2011-04-04 07:25:09 51°19.062 2°53.301 22.9 11.7 17 11
2011-04-04 07:25:14 51°19.077 2°53.309 22.9 11.7 17 11
2011-04-04 07:25:19 51°19.093 2°53.316 22.2 11.7 17 11
2011-04-04 07:25:24 51°19.109 2°53.324 21.9 11.8 16 11.1
2011-04-04 07:25:28 51°19.121 2°53.328 20.8 11.7 15 11.2
2011-04-04 07:25:34 51°19.14 2°53.337 20.3 11.7 15 11
2011-04-04 07:25:39 51°19.156 2°53.343 20.4 11.7 14 11.2
2011-04-04 07:25:44 51°19.171 2°53.35 20 11.7 15 11.2
2011-04-04 07:25:49 51°19.187 2°53.357 20.1 11.7 14 11.3
2011-04-04 07:25:54 51°19.203 2°53.364 20.3 11.7 16 11.3
2011-04-04 07:25:59 51°19.218 2°53.37 20.8 11.7 14 11.4
2011-04-04 07:26:04 51°19.234 2°53.377 20.6 11.7 17 11.3
2011-04-04 07:26:08 51°19.246 2°53.384 22.1 11.7 16 11.3
2011-04-04 07:26:14 51°19.265 2°53.393 22.1 11.6 18 11.4
2011-04-04 07:26:19 51°19.28 2°53.401 22.6 11.6 17 11.5
2011-04-04 07:26:24 51°19.296 2°53.408 22.6 11.6 17 11.5
2011-04-04 07:26:29 51°19.311 2°53.415 22.7 11.7 16 11.6
2011-04-04 07:26:34 51°19.327 2°53.423 21.7 11.6 17 11.6
2011-04-04 07:26:40 51°19.345 2°53.431 21.5 11.7 15 11.7
2011-04-04 07:26:44 51°19.358 2°53.436 21 11.7 16 11.6
2011-04-04 07:26:48 51°19.371 2°53.442 20.6 11.8 13 11.8
2011-04-04 07:26:54 51°19.389 2°53.449 19.7 11.8 13 11.7
2011-04-04 07:26:59 51°19.405 2°53.455 19.1 11.7 14 11.9
2011-04-04 07:27:04 51°19.421 2°53.461 19.3 11.7 15 11.9
2011-04-04 07:27:09 51°19.437 2°53.468 20.4 11.7 15 11.8
2011-04-04 07:27:14 51°19.452 2°53.476 21.2 11.6 17 12
2011-04-04 07:27:19 51°19.468 2°53.482 21.2 11.7 16 12
2011-04-04 07:27:24 51°19.483 2°53.49 21.2 11.7 15 12
2011-04-04 07:27:29 51°19.499 2°53.497 21.2 11.7 17 12.2
2011-04-04 07:27:34 51°19.515 2°53.504 21.8 11.7 15 12.2
2011-04-04 07:27:39 51°19.53 2°53.511 21.4 11.7 16 12.1
2011-04-04 07:27:44 51°19.546 2°53.518 21.7 11.6 16 12.2
2011-04-04 07:27:49 51°19.561 2°53.525 21.5 11.6 17 12.2
2011-04-04 07:27:54 51°19.577 2°53.533 22.1 11.7 16 12.4
2011-04-04 07:27:59 51°19.592 2°53.54 21.9 11.7 17 12.4
2011-04-04 07:28:04 51°19.608 2°53.547 22.4 11.7 16 12.4
2011-04-04 07:28:09 51°19.623 2°53.554 21.5 11.7 15 12.6
2011-04-04 07:28:14 51°19.639 2°53.561 20.5 11.6 16 12.7
2011-04-04 07:28:19 51°19.655 2°53.567 20.4 11.6 14 12.6
2011-04-04 07:28:24 51°19.67 2°53.573 20.4 11.6 14 12.6
2011-04-04 07:28:28 51°19.683 2°53.578 19.4 11.6 15 12.8
2011-04-04 07:28:34 51°19.701 2°53.586 20.5 11.6 16 12.8
2011-04-04 07:28:39 51°19.717 2°53.593 21.1 11.6 16 12.7
2011-04-04 07:28:44 51°19.732 2°53.601 22.2 11.6 18 12.9
2011-04-04 07:28:49 51°19.747 2°53.608 22.1 11.6 16 12.9
2011-04-04 07:28:54 51°19.763 2°53.616 22.7 11.6 18 13.1
2011-04-04 07:29:00 51°19.781 2°53.625 23.1 11.6 16 13.2
2011-04-04 07:29:04 51°19.794 2°53.631 23.1 11.6 17 13.2
2011-04-04 07:29:08 51°19.806 2°53.637 22.6 11.6 15 13.3
2011-04-04 07:29:14 51°19.825 2°53.645 21.8 11.6 18 13.4
2011-04-04 07:29:19 51°19.84 2°53.653 22.5 11.6 16 13.3
2011-04-04 07:29:24 51°19.856 2°53.66 22.6 11.6 17 13.4
2011-04-04 07:29:29 51°19.871 2°53.668 22.5 11.7 16 13.5
2011-04-04 07:29:34 51°19.887 2°53.675 22.1 11.7 16 13.4
2011-04-04 07:29:39 51°19.902 2°53.683 22 11.7 16 13.4
2011-04-04 07:29:44 51°19.918 2°53.69 21.7 11.6 17 13.8
2011-04-04 07:29:48 51°19.93 2°53.696 21.4 11.7 16 13.8
2011-04-04 07:29:54 51°19.949 2°53.704 21.4 11.7 17 13.8
2011-04-04 07:29:59 51°19.964 2°53.713 22.3 11.7 19 13.9
2011-04-04 07:30:04 51°19.98 2°53.72 22.7 11.7 17 13.8
2011-04-04 07:30:09 51°19.995 2°53.729 23.1 11.8 19 13.8
2011-04-04 07:30:14 51°20.011 2°53.736 23.2 11.8 17 14
2011-04-04 07:30:19 51°20.026 2°53.744 22.5 11.8 17 14.1
2011-04-04 07:30:24 51°20.042 2°53.752 22 11.8 17 14
2011-04-04 07:30:28 51°20.054 2°53.758 22 11.7 16 14.3
2011-04-04 07:30:34 51°20.073 2°53.767 21.9 11.7 17 14.4
2011-04-04 07:30:39 51°20.089 2°53.774 21.9 11.8 16 14.2
2011-04-04 07:30:44 51°20.104 2°53.781 21.9 11.8 16 14.2
2011-04-04 07:30:49 51°20.12 2°53.788 21.1 11.8 16 14.4
2011-04-04 07:30:54 51°20.136 2°53.796 21 11.8 16 14.5
2011-04-04 07:31:00 51°20.155 2°53.803 21.2 11.9 14 14.5
2011-04-04 07:31:04 51°20.167 2°53.809 20.4 11.9 15 14.5
2011-04-04 07:31:08 51°20.18 2°53.814 20.3 11.8 13 14.6
2011-04-04 07:31:14 51°20.199 2°53.821 19.2 11.8 14 14.6
2011-04-04 07:31:19 51°20.215 2°53.829 19.9 11.8 15 14.8
2011-04-04 07:31:24 51°20.23 2°53.835 20.3 11.8 15 14.8
2011-04-04 07:31:29 51°20.246 2°53.843 21 11.7 17 14.9
2011-04-04 07:31:34 51°20.262 2°53.85 21.4 11.7 15 14.8
2011-04-04 07:31:40 51°20.28 2°53.859 22.1 11.7 18 14.9
2011-04-04 07:31:44 51°20.293 2°53.864 21.7 11.8 13 14.9
2011-04-04 07:31:48 51°20.306 2°53.87 20.8 11.8 16 14.8
2011-04-04 07:31:54 51°20.325 2°53.877 20.8 11.7 13 14.9
2011-04-04 07:31:59 51°20.34 2°53.884 20.1 11.7 15 15
2011-04-04 07:32:04 51°20.356 2°53.891 20.4 11.7 16 15.1
2011-04-04 07:32:09 51°20.372 2°53.897 20.8 11.7 14 14.9
2011-04-04 07:32:14 51°20.387 2°53.904 20.8 11.6 16 15.1
2011-04-04 07:32:19 51°20.403 2°53.911 20.8 11.7 14 15.2
2011-04-04 07:32:24 51°20.418 2°53.918 21.2 11.6 16 15.2
2011-04-04 07:32:29 51°20.434 2°53.924 21.1 11.7 15 15.2
2011-04-04 07:32:34 51°20.45 2°53.932 21.5 11.7 16 15.3
2011-04-04 07:32:39 51°20.465 2°53.939 22.1 11.7 16 15.2
2011-04-04 07:32:44 51°20.481 2°53.946 21.9 11.7 16 15.1
2011-04-04 07:32:49 51°20.496 2°53.953 21.9 11.6 16 15.3
2011-04-04 07:32:54 51°20.512 2°53.96 22.3 11.7 16 15.4
2011-04-04 07:32:59 51°20.527 2°53.968 22.6 11.8 16 15.2
2011-04-04 07:33:04 51°20.543 2°53.975 21.9 11.8 15 15.5
2011-04-04 07:33:09 51°20.559 2°53.982 21.5 11.8 15 15.4
2011-04-04 07:33:14 51°20.575 2°53.988 20.7 11.9 13 15.4
2011-04-04 07:33:20 51°20.594 2°53.995 19.8 11.8 14 15.4
2011-04-04 07:33:24 51°20.607 2°54 19.7 11.8 14 15.4
2011-04-04 07:33:28 51°20.62 2°54.005 19.7 11.8 14 15.5
2011-04-04 07:33:35 51°20.642 2°54.014 20.8 11.8 15 15.5
2011-04-04 07:33:39 51°20.655 2°54.019 20.4 11.9 14 15.6
2011-04-04 07:33:44 51°20.67 2°54.026 21.1 11.8 17 15.6
2011-04-04 07:33:49 51°20.686 2°54.033 21.6 11.9 15 15.6
2011-04-04 07:33:54 51°20.702 2°54.04 21.9 11.8 16 15.6
2011-04-04 07:33:59 51°20.718 2°54.047 21.9 11.8 15 15.7
2011-04-04 07:34:04 51°20.733 2°54.054 21.4 11.7 16 15.7
2011-04-04 07:34:08 51°20.746 2°54.059 21.4 11.8 16 15.7
2011-04-04 07:34:14 51°20.765 2°54.068 22.1 11.8 15 15.6
2011-04-04 07:34:19 51°20.781 2°54.075 21.9 11.8 17 15.8
2011-04-04 07:34:24 51°20.796 2°54.083 22.6 11.8 16 15.9
2011-04-04 07:34:29 51°20.812 2°54.09 22.3 11.8 17 15.7
2011-04-04 07:34:34 51°20.828 2°54.097 22.6 11.8 16 15.6
2011-04-04 07:34:39 51°20.844 2°54.105 22.8 11.9 16 15.8
2011-04-04 07:34:44 51°20.859 2°54.112 22.4 11.8 17 15.9
2011-04-04 07:34:48 51°20.872 2°54.118 22.6 11.8 16 15.8
2011-04-04 07:34:54 51°20.891 2°54.127 22.7 11.8 17 15.8
2011-04-04 07:34:59 51°20.907 2°54.134 22.6 11.8 15 15.8
2011-04-04 07:35:04 51°20.922 2°54.141 22.2 11.7 17 15.8
2011-04-04 07:35:09 51°20.938 2°54.148 22.3 11.8 15 15.9
2011-04-04 07:35:14 51°20.954 2°54.155 21.5 11.8 16 16
2011-04-04 07:35:20 51°20.973 2°54.163 22.1 11.8 15 15.8
2011-04-04 07:35:24 51°20.985 2°54.169 21.8 11.8 16 15.8
2011-04-04 07:35:28 51°20.998 2°54.174 21.7 11.8 15 15.9
2011-04-04 07:35:34 51°21.017 2°54.183 21.7 11.8 16 16
2011-04-04 07:35:39 51°21.033 2°54.189 21.8 11.8 16 16
2011-04-04 07:35:44 51°21.048 2°54.197 22.1 11.8 16 15.7
2011-04-04 07:35:49 51°21.064 2°54.204 22.1 11.8 16 15.7
2011-04-04 07:35:54 51°21.08 2°54.212 22.2 11.9 17 16
2011-04-04 07:36:00 51°21.099 2°54.219 22.5 11.8 15 15.9
2011-04-04 07:36:04 51°21.112 2°54.225 21.9 11.8 16 15.9
2011-04-04 07:36:08 51°21.124 2°54.23 21.1 11.9 15 15.7
2011-04-04 07:36:14 51°21.144 2°54.239 21.7 11.9 15 15.6
2011-04-04 07:36:19 51°21.16 2°54.245 21.4 11.9 13 15.9
2011-04-04 07:36:24 51°21.176 2°54.251 20.6 12 15 16
2011-04-04 07:36:29 51°21.192 2°54.257 19.7 12 12 16.2
2011-04-04 07:36:34 51°21.208 2°54.263 19.6 11.9 15 15.9
2011-04-04 07:36:39 51°21.224 2°54.269 20.2 11.9 13 15.9
2011-04-04 07:36:44 51°21.24 2°54.276 20.7 11.9 15 16.1
2011-04-04 07:36:48 51°21.253 2°54.281 21.6 11.9 16 16.2
2011-04-04 07:36:54 51°21.272 2°54.29 22.3 11.8 16 16.1
2011-04-04 07:36:59 51°21.288 2°54.297 22.6 11.8 16 16.1
2011-04-04 07:37:04 51°21.303 2°54.305 22.6 11.9 16 16.3
2011-04-04 07:37:09 51°21.319 2°54.311 21.8 11.8 15 15.8
2011-04-04 07:37:14 51°21.335 2°54.318 21.8 11.9 15 16.3
2011-04-04 07:37:19 51°21.351 2°54.324 21.5 11.9 14 16.2
2011-04-04 07:37:24 51°21.367 2°54.332 21.8 11.9 16 16.2
2011-04-04 07:37:29 51°21.383 2°54.338 20.9 11.9 14 16.1
2011-04-04 07:37:34 51°21.399 2°54.345 20.9 11.8 15 16.2
2011-04-04 07:37:40 51°21.418 2°54.353 21.2 11.8 16 16.2
2011-04-04 07:37:44 51°21.431 2°54.357 21.4 11.8 13 16.1
2011-04-04 07:37:49 51°21.447 2°54.364 20.4 11.7 14 16.2
2011-04-04 07:37:54 51°21.462 2°54.37 20.4 11.8 14 16.2
2011-04-04 07:38:00 51°21.481 2°54.378 20.4 11.8 14 16.2
2011-04-04 07:38:04 51°21.494 2°54.383 20.9 11.9 15 16.2
2011-04-04 07:38:09 51°21.51 2°54.39 21.1 11.9 14 16.3
2011-04-04 07:38:14 51°21.526 2°54.397 21.3 11.8 16 16.2
2011-04-04 07:38:20 51°21.545 2°54.404 21.9 11.8 14 16.2
2011-04-04 07:38:24 51°21.558 2°54.41 21.1 11.8 15 16.4
2011-04-04 07:38:29 51°21.574 2°54.416 21.1 11.9 14 16.3
2011-04-04 07:38:34 51°21.59 2°54.423 21.1 11.9 15 16.4
2011-04-04 07:38:39 51°21.606 2°54.43 21.6 11.9 16 16.3
2011-04-04 07:38:44 51°21.622 2°54.437 22 11.9 15 16.4
2011-04-04 07:38:49 51°21.638 2°54.443 21.4 11.9 15 16.4
2011-04-04 07:38:54 51°21.654 2°54.45 21.4 11.9 15 16.3
2011-04-04 07:38:59 51°21.67 2°54.457 21.4 11.9 14 16.4
2011-04-04 07:39:04 51°21.686 2°54.464 21.2 11.9 15 16.4
2011-04-04 07:39:08 51°21.699 2°54.469 21.5 12 14 16.4
2011-04-04 07:39:14 51°21.718 2°54.477 21.1 12 15 16.3
2011-04-04 07:39:19 51°21.734 2°54.483 20.6 11.9 13 16.4
2011-04-04 07:39:24 51°21.75 2°54.489 20 11.9 14 16.4
2011-04-04 07:39:29 51°21.766 2°54.495 19.8 11.9 12 16.5
2011-04-04 07:39:34 51°21.782 2°54.501 19.6 11.9 14 16.5
2011-04-04 07:39:40 51°21.801 2°54.509 20.2 11.8 13 16.4
2011-04-04 07:39:44 51°21.814 2°54.513 20 11.8 14 16.3
2011-04-04 07:39:48 51°21.827 2°54.519 21.1 11.9 14 16.4
2011-04-04 07:39:54 51°21.846 2°54.527 21.1 11.8 14 16.4
2011-04-04 07:39:59 51°21.862 2°54.533 21 11.8 14 16.7
2011-04-04 07:40:04 51°21.878 2°54.54 20.9 11.8 15 16.6
2011-04-04 07:40:09 51°21.894 2°54.546 21.5 11.9 14 16.6
2011-04-04 07:40:14 51°21.909 2°54.553 21.5 11.8 17 16.8
2011-04-04 07:40:20 51°21.929 2°54.561 22.5 11.8 14 16.7
2011-04-04 07:40:24 51°21.941 2°54.567 22 11.8 15 17
2011-04-04 07:40:28 51°21.954 2°54.573 22 11.8 15 17
2011-04-04 07:40:34 51°21.973 2°54.58 21.8 11.8 15 17
2011-04-04 07:40:39 51°21.989 2°54.587 22.2 11.8 14 17.4
2011-04-04 07:40:44 51°22.005 2°54.594 22 11.8 15 17.5
2011-04-04 07:40:49 51°22.02 2°54.601 22.1 11.9 15 17.8
2011-04-04 07:40:54 51°22.037 2°54.607 21.9 11.9 14 18
2011-04-04 07:40:59 51°22.053 2°54.614 21.8 11.9 14 18.1
2011-04-04 07:41:04 51°22.069 2°54.62 20.4 12 13 18.1
2011-04-04 07:41:08 51°22.082 2°54.625 21.1 12 14 18.1
2011-04-04 07:41:14 51°22.101 2°54.632 20.9 12 12 18.3
2011-04-04 07:41:19 51°22.117 2°54.639 20.7 12 14 18.2
2011-04-04 07:41:24 51°22.134 2°54.644 20.7 12.1 12 18
2011-04-04 07:41:29 51°22.15 2°54.65 20.2 12 13 18.1
2011-04-04 07:41:34 51°22.166 2°54.657 19.8 11.9 14 18
2011-04-04 07:41:39 51°22.182 2°54.662 20.8 12 13 17.7
2011-04-04 07:41:44 51°22.198 2°54.669 20.8 12 14 17.5
2011-04-04 07:41:48 51°22.211 2°54.674 21.4 12 14 17.5
2011-04-04 07:41:54 51°22.23 2°54.682 21.6 11.9 15 17.7
2011-04-04 07:41:59 51°22.247 2°54.689 21.9 12 14 17.5
2011-04-04 07:42:04 51°22.263 2°54.696 21.9 12 15 17.4
2011-04-04 07:42:09 51°22.278 2°54.702 22.1 12 15 17.3
2011-04-04 07:42:14 51°22.295 2°54.71 22.1 12 16 17.5
2011-04-04 07:42:20 51°22.314 2°54.718 22.8 12.1 15 17.5
2011-04-04 07:42:24 51°22.327 2°54.724 22.6 12.1 15 17.7
2011-04-04 07:42:29 51°22.343 2°54.731 22.5 12 16 17.6
2011-04-04 07:42:34 51°22.359 2°54.737 22 12 14 17.8
2011-04-04 07:42:40 51°22.378 2°54.746 21.7 12 15 17.8
2011-04-04 07:42:44 51°22.391 2°54.75 21.3 12.1 14 17.8
2011-04-04 07:42:49 51°22.407 2°54.758 21.9 12.1 15 17.9
2011-04-04 07:42:54 51°22.424 2°54.764 21.5 12.1 13 18
2011-04-04 07:42:59 51°22.44 2°54.771 21.2 12.1 16 18.1
2011-04-04 07:43:04 51°22.456 2°54.777 21.4 12.2 12 18.2
2011-04-04 07:43:09 51°22.473 2°54.784 21 12.1 15 18.4
2011-04-04 07:43:14 51°22.489 2°54.789 21 12.1 12 18.3
2011-04-04 07:43:19 51°22.505 2°54.796 20.4 12.1 14 18.4
2011-04-04 07:43:24 51°22.522 2°54.801 20.2 12.1 12 18.3
2011-04-04 07:43:29 51°22.538 2°54.807 20.4 11.9 13 18.4
2011-04-04 07:43:34 51°22.554 2°54.813 19.7 11.9 12 18.2
2011-04-04 07:43:39 51°22.57 2°54.819 19.8 11.9 14 18.6
2011-04-04 07:43:44 51°22.586 2°54.825 20.8 11.9 14 18.5
2011-04-04 07:43:49 51°22.602 2°54.832 21.4 11.9 13 18.8
2011-04-04 07:43:54 51°22.618 2°54.839 21.6 11.8 16 18.9
2011-04-04 07:43:59 51°22.634 2°54.845 22 11.9 13 19.1
2011-04-04 07:44:04 51°22.65 2°54.852 21.2 11.9 15 19.1
2011-04-04 07:44:08 51°22.663 2°54.856 21.2 12 11 19.1
2011-04-04 07:44:14 51°22.682 2°54.863 20.4 11.9 14 19.1
2011-04-04 07:44:19 51°22.698 2°54.869 20.5 12 12 19.2
2011-04-04 07:44:24 51°22.714 2°54.875 20 11.9 13 19.3
2011-04-04 07:44:29 51°22.731 2°54.88 20.4 11.9 13 19.2
2011-04-04 07:44:34 51°22.747 2°54.887 21.2 11.9 13 19.2
2011-04-04 07:44:40 51°22.766 2°54.894 21.2 11.9 15 19.3
2011-04-04 07:44:44 51°22.779 2°54.9 21.9 11.9 14 19.1
2011-04-04 07:44:48 51°22.791 2°54.905 21.9 11.9 15 18.8
2011-04-04 07:44:54 51°22.811 2°54.913 22.2 12 14 18.9
2011-04-04 07:44:59 51°22.827 2°54.919 21.8 12 14 18.8
2011-04-04 07:45:04 51°22.843 2°54.926 21.1 12 14 18.8
2011-04-04 07:45:09 51°22.859 2°54.932 21.7 11.9 14 18.7
2011-04-04 07:45:14 51°22.875 2°54.939 21.9 11.9 14 18.7
2011-04-04 07:45:19 51°22.891 2°54.946 22 11.9 15 18.8
2011-04-04 07:45:24 51°22.907 2°54.951 21.1 11.8 12 18.8
2011-04-04 07:45:28 51°22.919 2°54.957 21.8 11.8 14 18.8
2011-04-04 07:45:34 51°22.938 2°54.963 21 11.8 14 18.7
2011-04-04 07:45:39 51°22.954 2°54.971 21.7 11.8 15 18.7
2011-04-04 07:45:44 51°22.97 2°54.977 22.1 11.8 14 18.9
2011-04-04 07:45:49 51°22.986 2°54.984 21.9 11.8 14 18.8
2011-04-04 07:45:54 51°23.002 2°54.99 21.2 11.8 14 18.9
2011-04-04 07:45:59 51°23.018 2°54.997 21.4 11.8 15 18.9
2011-04-04 07:46:04 51°23.034 2°55.002 21.7 11.8 13 18.8
2011-04-04 07:46:08 51°23.046 2°55.007 21.1 11.8 13 18.9
2011-04-04 07:46:14 51°23.066 2°55.014 20.5 11.8 14 18.6
2011-04-04 07:46:19 51°23.082 2°55.021 21.2 11.7 14 18.4
2011-04-04 07:46:24 51°23.097 2°55.028 21.7 11.8 15 18.6
2011-04-04 07:46:29 51°23.113 2°55.034 21.9 11.8 15 18.7
2011-04-04 07:46:34 51°23.129 2°55.041 22.6 11.8 15 18.7
2011-04-04 07:46:40 51°23.148 2°55.05 22.3 11.7 16 18.5
2011-04-04 07:46:44 51°23.16 2°55.055 22 11.7 14 18.6
2011-04-04 07:46:48 51°23.173 2°55.06 21.8 11.7 16 18.4
2011-04-04 07:46:54 51°23.192 2°55.069 22.4 11.8 15 18.6
2011-04-04 07:46:59 51°23.207 2°55.076 22.2 11.7 15 18.7